Time;durP1;ratioP1;P1;durP2;ratioP2;P2;SDS_P1;SDS_P2;PMS_P1;PMS_P2;Temp;Humidity;BMP_temperature;BMP_pressure;BME280_temperature;BME280_humidity;BME280_pressure;Samples;Min_cycle;Max_cycle;Signal;HPM_P1;HPM_P2
2023/03/12 00:01:32;;;;;;;6.00;3.00;;;0.90;99.90;;;;;;5112374;28;20040;-56
2023/03/12 00:04:03;;;;;;;4.60;2.85;;;0.80;99.90;;;;;;5112329;28;20035;-56
2023/03/12 00:06:31;;;;;;;7.35;3.00;;;0.80;99.90;;;;;;5112763;28;20520;-56
2023/03/12 00:09:00;;;;;;;7.25;3.15;;;0.80;99.90;;;;;;5112512;28;20090;-55
2023/03/12 00:11:27;;;;;;;7.78;3.50;;;0.80;99.90;;;;;;5112265;28;20043;-55
2023/03/12 00:13:59;;;;;;;6.22;3.08;;;0.80;99.90;;;;;;5111780;28;20039;-55
2023/03/12 00:16:34;;;;;;;6.85;3.15;;;0.70;99.90;;;;;;5111957;28;20528;-56
2023/03/12 00:19:06;;;;;;;7.80;3.22;;;0.70;99.90;;;;;;5110565;28;20401;-56
2023/03/12 00:21:33;;;;;;;5.85;3.22;;;0.80;99.90;;;;;;5112400;28;20036;-55
2023/03/12 00:24:08;;;;;;;7.88;4.40;;;0.70;99.90;;;;;;5112018;28;20787;-56
2023/03/12 00:26:44;;;;;;;11.45;4.70;;;0.80;99.90;;;;;;5111788;28;20104;-55
2023/03/12 00:29:14;;;;;;;10.07;3.67;;;0.70;99.90;;;;;;5111940;28;20048;-56
2023/03/12 00:31:41;;;;;;;5.65;4.03;;;0.70;99.90;;;;;;5112093;28;20039;-56
2023/03/12 00:34:10;;;;;;;8.68;3.85;;;0.60;99.90;;;;;;5111896;28;20123;-56
2023/03/12 00:36:42;;;;;;;5.38;2.90;;;0.50;99.90;;;;;;5111158;28;20082;-56
2023/03/12 00:39:12;;;;;;;6.93;3.08;;;0.70;99.90;;;;;;5111825;28;20039;-55
2023/03/12 00:41:42;;;;;;;5.20;2.75;;;0.70;99.90;;;;;;5112105;28;20032;-56
2023/03/12 00:44:17;;;;;;;11.63;3.10;;;0.50;99.90;;;;;;5111564;28;20397;-56
2023/03/12 00:46:51;;;;;;;8.57;2.72;;;0.60;99.90;;;;;;5110863;28;20468;-56
2023/03/12 00:49:25;;;;;;;4.70;2.65;;;0.60;99.90;;;;;;5111599;28;20075;-56
2023/03/12 00:51:52;;;;;;;6.07;2.60;;;0.60;99.90;;;;;;5111751;28;20036;-56
2023/03/12 00:54:26;;;;;;;9.07;3.97;;;0.60;99.90;;;;;;5111486;28;20035;-56
2023/03/12 00:56:59;;;;;;;5.28;3.53;;;0.60;99.90;;;;;;5110505;28;20044;-56
2023/03/12 00:59:32;;;;;;;6.18;3.65;;;0.50;99.90;;;;;;5111704;28;20036;-56
2023/03/12 01:02:06;;;;;;;6.65;3.92;;;0.60;99.90;;;;;;5111500;28;20047;-56
2023/03/12 01:04:35;;;;;;;5.60;3.72;;;0.60;99.90;;;;;;5111648;28;20048;-56
2023/03/12 01:07:07;;;;;;;7.43;4.00;;;0.40;99.90;;;;;;5111812;28;20123;-55
2023/03/12 01:09:42;;;;;;;7.55;3.95;;;0.60;99.90;;;;;;5111530;28;20073;-55
2023/03/12 01:12:11;;;;;;;8.52;3.88;;;0.50;99.90;;;;;;5111832;28;20442;-55
2023/03/12 01:14:41;;;;;;;8.38;4.00;;;0.60;99.90;;;;;;5111419;28;20432;-56
2023/03/12 01:17:13;;;;;;;8.80;4.65;;;0.50;99.90;;;;;;5114469;28;20043;-56
2023/03/12 01:19:40;;;;;;;11.10;4.40;;;0.60;99.90;;;;;;5115565;27;20485;-56
2023/03/12 01:22:09;;;;;;;13.35;4.95;;;0.50;99.90;;;;;;5115044;28;20035;-56
2023/03/12 01:24:41;;;;;;;10.15;5.20;;;0.50;99.90;;;;;;5115036;28;20054;-56
2023/03/12 01:27:13;;;;;;;10.88;5.28;;;0.50;99.90;;;;;;5115132;28;20048;-56
2023/03/12 01:29:40;;;;;;;15.20;5.07;;;0.60;99.90;;;;;;5115238;28;20408;-55
2023/03/12 01:32:07;;;;;;;6.68;4.80;;;0.50;99.90;;;;;;5114980;28;20520;-55
2023/03/12 01:34:38;;;;;;;9.85;4.78;;;0.50;99.90;;;;;;5114882;28;20035;-56
2023/03/12 01:37:10;;;;;;;11.52;5.82;;;0.40;99.90;;;;;;5114853;28;20096;-56
2023/03/12 01:39:43;;;;;;;10.52;5.10;;;0.50;99.90;;;;;;5114511;28;20401;-56
2023/03/12 01:42:18;;;;;;;12.52;6.22;;;0.50;99.90;;;;;;5114591;28;20084;-56
2023/03/12 01:44:57;;;;;;;14.88;6.13;;;0.60;99.90;;;;;;5115004;28;20036;-55
2023/03/12 01:47:28;;;;;;;15.52;5.55;;;0.60;99.90;;;;;;5114605;28;20434;-55
2023/03/12 01:49:58;;;;;;;14.68;6.20;;;0.50;99.90;;;;;;5114205;27;20062;-56
2023/03/12 01:52:32;;;;;;;9.10;5.43;;;0.50;99.90;;;;;;5114682;28;20035;-56
2023/03/12 01:55:09;;;;;;;8.93;5.00;;;0.50;99.90;;;;;;5114703;28;20104;-56
2023/03/12 01:57:53;;;;;;;9.73;4.38;;;0.60;99.90;;;;;;5114045;27;20503;-55
2023/03/12 02:00:32;;;;;;;9.60;4.63;;;0.60;99.90;;;;;;5114279;28;20044;-56
2023/03/12 02:03:10;;;;;;;7.75;4.68;;;0.60;99.90;;;;;;5114700;28;20118;-56
2023/03/12 02:05:53;;;;;;;8.95;4.38;;;0.60;99.90;;;;;;5114496;28;20032;-56
2023/03/12 02:08:26;;;;;;;9.60;4.10;;;0.70;99.90;;;;;;5113943;28;20393;-56
2023/03/12 02:10:58;;;;;;;8.43;4.40;;;0.60;99.90;;;;;;5114154;28;20031;-55
2023/03/12 02:13:31;;;;;;;9.82;4.45;;;0.50;99.90;;;;;;5114155;28;20485;-55
2023/03/12 02:16:00;;;;;;;5.65;4.13;;;0.70;99.90;;;;;;5114370;28;20036;-56
2023/03/12 02:18:30;;;;;;;7.15;4.25;;;0.70;99.90;;;;;;5114012;28;20040;-56
2023/03/12 02:21:01;;;;;;;6.55;4.10;;;0.70;99.90;;;;;;5113873;28;20042;-56
2023/03/12 02:23:40;;;;;;;9.07;4.53;;;0.50;99.90;;;;;;5113709;28;20051;-56
2023/03/12 02:26:09;;;;;;;6.75;4.15;;;0.70;99.90;;;;;;5113246;28;20127;-56
2023/03/12 02:28:42;;;;;;;9.00;4.47;;;0.80;99.90;;;;;;5112541;28;20058;-56
2023/03/12 02:31:14;;;;;;;9.43;4.43;;;0.80;99.90;;;;;;5113867;28;20086;-56
2023/03/12 02:33:46;;;;;;;8.85;4.40;;;0.80;99.90;;;;;;5113627;28;20047;-56
2023/03/12 02:36:14;;;;;;;5.78;3.88;;;0.70;99.90;;;;;;5113700;28;20572;-56
2023/03/12 02:38:48;;;;;;;11.20;4.28;;;0.80;99.90;;;;;;5113859;28;20042;-56
2023/03/12 02:41:35;;;;;;;7.88;4.53;;;0.90;99.90;;;;;;5113733;28;20114;-56
2023/03/12 02:44:11;;;;;;;6.10;4.07;;;0.80;99.90;;;;;;5113771;28;20027;-55
2023/03/12 02:46:48;;;;;;;10.18;4.22;;;0.80;99.90;;;;;;5113652;28;20032;-56
2023/03/12 02:49:19;;;;;;;7.82;5.30;;;0.90;99.90;;;;;;5113997;28;20043;-56
2023/03/12 02:51:49;;;;;;;8.38;4.80;;;0.80;99.90;;;;;;5113175;28;20077;-56
2023/03/12 02:54:17;;;;;;;11.45;4.72;;;0.80;99.90;;;;;;5113514;28;20035;-56
2023/03/12 02:56:46;;;;;;;10.57;5.00;;;1.00;99.90;;;;;;5113545;28;20031;-56
2023/03/12 02:59:19;;;;;;;14.13;5.20;;;0.90;99.90;;;;;;5111882;28;20478;-56
2023/03/12 03:01:53;;;;;;;8.07;5.13;;;1.00;99.90;;;;;;5113261;28;20035;-56
2023/03/12 03:04:22;;;;;;;13.20;4.90;;;0.90;99.90;;;;;;5113273;28;20043;-56
2023/03/12 03:06:51;;;;;;;;;;;1.00;99.90;;;;;;5113511;28;20040;-56
2023/03/12 03:09:21;;;;;;;9.45;4.50;;;0.90;99.90;;;;;;5113225;28;19998;-56
2023/03/12 03:11:48;;;;;;;6.70;4.30;;;1.00;99.90;;;;;;5111651;28;20143;-56
2023/03/12 03:14:19;;;;;;;5.28;3.80;;;1.10;99.90;;;;;;5112854;27;20393;-56
2023/03/12 03:16:47;;;;;;;8.98;3.95;;;1.10;99.90;;;;;;5113024;28;20044;-56
2023/03/12 03:19:17;;;;;;;8.50;3.95;;;1.10;99.90;;;;;;5112855;28;20059;-56
2023/03/12 03:21:46;;;;;;;7.32;3.42;;;1.20;99.90;;;;;;5111341;28;20039;-57
2023/03/12 03:24:15;;;;;;;5.38;3.15;;;1.20;99.90;;;;;;5112638;28;20044;-56
2023/03/12 03:26:43;;;;;;;11.18;4.18;;;1.20;99.90;;;;;;5113123;28;20549;-56
2023/03/12 03:29:14;;;;;;;6.57;3.63;;;1.10;99.90;;;;;;5113006;28;20040;-56
2023/03/12 03:31:42;;;;;;;10.43;3.45;;;1.30;99.90;;;;;;5113018;28;20058;-56
2023/03/12 03:34:13;;;;;;;;;;;1.20;99.90;;;;;;5112996;28;20396;-56
2023/03/12 03:36:46;;;;;;;6.65;3.30;;;1.30;99.90;;;;;;5112670;28;20329;-56
2023/03/12 03:39:16;;;;;;;11.38;3.60;;;1.20;99.90;;;;;;5112149;28;20427;-56
2023/03/12 03:41:42;;;;;;;6.00;3.65;;;1.30;99.90;;;;;;5112769;28;20048;-56
2023/03/12 03:44:13;;;;;;;4.63;3.28;;;1.30;99.90;;;;;;5112514;28;20409;-56
2023/03/12 03:46:46;;;;;;;7.93;3.63;;;1.30;99.90;;;;;;5112626;28;20518;-56
2023/03/12 03:49:15;;;;;;;6.07;3.47;;;1.30;99.90;;;;;;5112471;28;20126;-56
2023/03/12 03:51:45;;;;;;;5.90;2.97;;;1.40;99.90;;;;;;5111435;28;20122;-57
2023/03/12 03:54:16;;;;;;;10.07;3.92;;;1.30;99.90;;;;;;5112266;28;20040;-56
2023/03/12 03:56:44;;;;;;;4.35;3.20;;;1.30;99.90;;;;;;5112146;28;20092;-56
2023/03/12 03:59:18;;;;;;;8.27;3.97;;;1.40;99.90;;;;;;5112183;28;20039;-56
2023/03/12 04:01:48;;;;;;;4.32;3.08;;;1.30;99.90;;;;;;5112511;28;20047;-56
2023/03/12 04:04:27;;;;;;;6.07;3.60;;;1.40;99.90;;;;;;5112058;28;20089;-56
2023/03/12 04:07:00;;;;;;;8.63;3.20;;;1.40;99.90;;;;;;5111981;28;20469;-56
2023/03/12 04:09:30;;;;;;;5.82;3.05;;;1.40;99.90;;;;;;5112287;28;20389;-56
2023/03/12 04:11:58;;;;;;;8.88;3.47;;;1.50;99.90;;;;;;5112470;28;20075;-56
2023/03/12 04:14:29;;;;;;;5.47;2.92;;;1.50;99.90;;;;;;5111329;28;20046;-56
2023/03/12 04:17:05;;;;;;;8.52;3.28;;;1.50;99.90;;;;;;5112048;28;20075;-56
2023/03/12 04:19:33;;;;;;;10.50;3.35;;;1.50;99.90;;;;;;5112316;28;20044;-56
2023/03/12 04:22:03;;;;;;;5.60;3.33;;;1.50;99.90;;;;;;5112276;28;20032;-56
2023/03/12 04:24:34;;;;;;;6.38;3.63;;;1.50;99.90;;;;;;5111658;28;20131;-56
2023/03/12 04:27:07;;;;;;;9.38;3.35;;;1.50;99.90;;;;;;5111847;28;20093;-56
2023/03/12 04:29:37;;;;;;;8.33;3.50;;;1.50;99.90;;;;;;5110243;28;20083;-56
2023/03/12 04:32:15;;;;;;;6.07;3.25;;;1.50;99.90;;;;;;5111720;28;20074;-56
2023/03/12 04:34:43;;;;;;;8.10;3.55;;;1.60;99.90;;;;;;5109118;28;20044;-56
2023/03/12 04:37:15;;;;;;;7.53;3.70;;;1.60;99.90;;;;;;5112134;28;20038;-56
2023/03/12 04:39:47;;;;;;;8.85;3.60;;;1.60;99.90;;;;;;5110016;28;20390;-56
2023/03/12 04:42:18;;;;;;;11.32;4.38;;;1.60;99.90;;;;;;5111278;28;20047;-56
2023/03/12 04:44:51;;;;;;;7.90;3.83;;;1.60;99.90;;;;;;5111838;28;20112;-56
2023/03/12 04:47:23;;;;;;;9.35;3.65;;;1.60;99.90;;;;;;5111799;28;20050;-56
2023/03/12 04:49:55;;;;;;;8.23;3.72;;;1.60;99.90;;;;;;5110676;28;20055;-56
2023/03/12 04:52:26;;;;;;;7.45;3.42;;;1.50;99.90;;;;;;5115812;27;20074;-55
2023/03/12 04:54:58;;;;;;;5.68;3.90;;;1.50;99.90;;;;;;5115810;28;20035;-56
2023/03/12 04:57:29;;;;;;;9.35;4.15;;;1.50;99.90;;;;;;5115643;28;20039;-56
2023/03/12 05:00:04;;;;;;;8.23;3.55;;;1.50;99.90;;;;;;5115407;28;20481;-56
2023/03/12 05:02:32;;;;;;;7.10;3.40;;;1.50;99.90;;;;;;5115953;28;20465;-56
2023/03/12 05:05:02;;;;;;;7.40;3.30;;;1.60;99.90;;;;;;5115585;27;20044;-56
2023/03/12 05:07:32;;;;;;;6.30;3.28;;;1.60;99.90;;;;;;5115546;28;20507;-56
2023/03/12 05:10:05;;;;;;;9.55;4.13;;;1.60;99.90;;;;;;5113354;28;20059;-56
2023/03/12 05:12:37;;;;;;;7.53;4.00;;;1.50;99.90;;;;;;5115612;28;20040;-56
2023/03/12 05:15:07;;;;;;;9.75;3.53;;;1.60;99.90;;;;;;5115797;28;20039;-56
2023/03/12 05:17:40;;;;;;;7.70;3.65;;;1.60;99.90;;;;;;5114811;28;20396;-56
2023/03/12 05:20:15;;;;;;;6.38;3.40;;;1.60;99.90;;;;;;5115682;28;20090;-56
2023/03/12 05:22:47;;;;;;;10.18;4.85;;;1.60;99.90;;;;;;5115132;28;20035;-56
2023/03/12 05:25:18;;;;;;;10.70;3.65;;;1.70;99.90;;;;;;5114758;28;20051;-57
2023/03/12 05:27:49;;;;;;;8.40;3.50;;;1.70;99.90;;;;;;5115259;28;20411;-56
2023/03/12 05:30:15;;;;;;;10.53;3.87;;;1.60;99.90;;;;;;5115361;28;20044;-56
2023/03/12 05:32:45;;;;;;;9.50;3.80;;;1.60;99.90;;;;;;5115555;28;20277;-56
2023/03/12 05:35:17;;;;;;;8.02;3.58;;;1.60;99.90;;;;;;5114833;28;20477;-56
2023/03/12 05:37:50;;;;;;;8.63;3.58;;;1.60;99.90;;;;;;5114480;28;20039;-55
2023/03/12 05:40:21;;;;;;;6.47;3.78;;;1.60;99.90;;;;;;5114860;28;20047;-56
2023/03/12 05:42:55;;;;;;;6.45;3.63;;;1.60;99.90;;;;;;5114493;28;20047;-56
2023/03/12 05:45:25;;;;;;;9.57;3.92;;;1.70;99.90;;;;;;5114910;28;20035;-56
2023/03/12 05:47:59;;;;;;;6.47;3.72;;;1.70;99.90;;;;;;5114635;28;20039;-56
2023/03/12 05:50:32;;;;;;;6.00;3.72;;;1.70;99.90;;;;;;5113458;28;20374;-56
2023/03/12 05:53:01;;;;;;;8.18;3.85;;;1.70;99.90;;;;;;5114640;28;20481;-56
2023/03/12 05:55:35;;;;;;;7.68;4.15;;;1.70;99.90;;;;;;5113376;28;20101;-56
2023/03/12 05:58:09;;;;;;;7.90;4.38;;;1.70;99.90;;;;;;5114003;28;20101;-56
2023/03/12 06:00:43;;;;;;;6.00;3.50;;;1.70;99.90;;;;;;5112383;28;20055;-56
2023/03/12 06:03:18;;;;;;;10.00;3.72;;;1.70;99.90;;;;;;5114219;27;20051;-55
2023/03/12 06:05:48;;;;;;;8.65;4.22;;;1.80;99.90;;;;;;5113862;28;20032;-56
2023/03/12 06:08:18;;;;;;;8.02;4.25;;;1.80;99.90;;;;;;5114401;28;20035;-56
2023/03/12 06:10:46;;;;;;;8.65;3.80;;;1.80;99.90;;;;;;5112195;28;20050;-56
2023/03/12 06:13:12;;;;;;;7.15;3.70;;;1.90;99.90;;;;;;5114189;28;20489;-56
2023/03/12 06:15:43;;;;;;;7.50;3.67;;;1.90;99.90;;;;;;5114263;28;20123;-57
2023/03/12 06:18:11;;;;;;;14.10;4.15;;;1.90;99.90;;;;;;5114016;28;20400;-56
2023/03/12 06:20:43;;;;;;;7.32;4.10;;;1.90;99.90;;;;;;5113859;28;20101;-56
2023/03/12 06:23:14;;;;;;;8.52;3.80;;;2.00;99.90;;;;;;5113909;28;20031;-56
2023/03/12 06:25:45;;;;;;;9.52;4.05;;;1.90;99.90;;;;;;5113777;28;20040;-56
2023/03/12 06:28:17;;;;;;;12.75;3.90;;;2.00;99.90;;;;;;5114012;28;20087;-56
2023/03/12 06:30:50;;;;;;;7.60;3.97;;;2.00;99.90;;;;;;5113593;28;20050;-57
2023/03/12 06:33:17;;;;;;;9.60;4.03;;;2.00;99.90;;;;;;5114387;28;20450;-56
2023/03/12 06:35:44;;;;;;;7.70;3.88;;;2.00;99.90;;;;;;5114021;28;20416;-56
2023/03/12 06:38:16;;;;;;;9.77;4.40;;;2.00;99.90;;;;;;5113599;28;20039;-56
2023/03/12 06:41:05;;;;;;;9.95;4.55;;;2.10;99.90;;;;;;5111073;28;20097;-56
2023/03/12 06:43:33;;;;;;;8.63;3.92;;;2.00;99.90;;;;;;5072932;28;20140;-56
2023/03/12 06:46:02;;;;;;;11.98;4.13;;;2.10;99.90;;;;;;5072576;28;20512;-56
2023/03/12 06:48:40;;;;;;;11.77;4.80;;;2.10;99.90;;;;;;5070749;28;20514;-56
2023/03/12 06:51:13;;;;;;;8.68;4.10;;;2.10;99.90;;;;;;5072920;28;20127;-56
2023/03/12 06:53:47;;;;;;;10.18;4.72;;;2.10;99.90;;;;;;5072927;28;20047;-56
2023/03/12 06:56:16;;;;;;;8.13;4.18;;;2.10;99.90;;;;;;5072625;28;20119;-56
2023/03/12 06:58:42;;;;;;;12.43;5.20;;;2.20;99.90;;;;;;5072630;28;20032;-56
2023/03/12 07:01:09;;;;;;;9.98;4.10;;;2.20;99.90;;;;;;5072578;28;20036;-57
2023/03/12 07:03:37;;;;;;;9.57;4.65;;;2.20;99.90;;;;;;5072362;28;20072;-56
2023/03/12 07:06:11;;;;;;;10.25;4.40;;;2.20;99.90;;;;;;5102675;28;20067;-56
2023/03/12 07:08:44;;;;;;;6.90;4.28;;;2.20;99.90;;;;;;5112777;28;20080;-56
2023/03/12 07:11:14;;;;;;;8.80;4.20;;;2.30;99.90;;;;;;5113444;28;20125;-57
2023/03/12 07:13:41;;;;;;;7.70;4.55;;;2.30;99.90;;;;;;5112290;27;20048;-56
2023/03/12 07:16:08;;;;;;;7.07;4.57;;;2.30;99.90;;;;;;5112815;28;20039;-56
2023/03/12 07:18:35;;;;;;;9.23;5.55;;;2.20;99.90;;;;;;5112845;28;20039;-56
2023/03/12 07:21:02;;;;;;;11.95;5.35;;;2.20;99.90;;;;;;5112806;28;20156;-56
2023/03/12 07:23:30;;;;;;;11.50;5.30;;;2.20;99.90;;;;;;5112997;28;20103;-56
2023/03/12 07:25:56;;;;;;;13.13;5.68;;;2.10;99.90;;;;;;5110880;28;20048;-56
2023/03/12 07:28:22;;;;;;;13.10;5.78;;;2.10;99.90;;;;;;5112579;28;20507;-56
2023/03/12 07:30:49;;;;;;;11.40;5.70;;;2.10;99.90;;;;;;5112852;28;20181;-56
2023/03/12 07:33:18;;;;;;;11.45;6.53;;;2.00;99.90;;;;;;5112748;28;20531;-56
2023/03/12 07:35:47;;;;;;;17.95;6.72;;;2.00;99.90;;;;;;5113224;28;20132;-56
2023/03/12 07:38:13;;;;;;;13.27;6.22;;;1.90;99.90;;;;;;5112629;28;20032;-56
2023/03/12 07:40:40;;;;;;;14.93;6.35;;;1.80;99.90;;;;;;5112497;28;20119;-56
2023/03/12 07:43:10;;;;;;;12.48;6.63;;;1.80;99.90;;;;;;5112716;28;20043;-56
2023/03/12 07:45:40;;;;;;;17.40;7.53;;;1.70;99.90;;;;;;5112564;28;20401;-56
2023/03/12 07:48:08;;;;;;;16.42;8.43;;;1.70;99.90;;;;;;5112559;28;20035;-56
2023/03/12 07:50:38;;;;;;;13.70;7.75;;;1.60;99.90;;;;;;5112208;28;20040;-56
2023/03/12 07:53:05;;;;;;;12.73;7.45;;;1.60;99.90;;;;;;5112566;28;20492;-56
2023/03/12 07:55:34;;;;;;;15.35;7.93;;;1.50;99.90;;;;;;5112875;28;20043;-56
2023/03/12 07:58:00;;;;;;;13.20;7.85;;;1.50;99.90;;;;;;5112181;28;20032;-56
2023/03/12 08:00:29;;;;;;;13.57;7.68;;;1.60;99.90;;;;;;5112096;28;20512;-56
2023/03/12 08:02:57;;;;;;;13.68;7.55;;;1.60;99.90;;;;;;5112199;28;20035;-56
2023/03/12 08:05:29;;;;;;;12.48;7.88;;;1.40;99.90;;;;;;5112428;28;20035;-56
2023/03/12 08:07:57;;;;;;;15.32;8.13;;;1.50;99.90;;;;;;5112235;28;20032;-56
2023/03/12 08:10:23;;;;;;;11.73;7.68;;;1.50;99.90;;;;;;5106860;28;20115;-59
2023/03/12 08:12:50;;;;;;;10.20;7.32;;;1.40;99.90;;;;;;5091681;28;20039;-56
2023/03/12 08:15:16;;;;;;;14.65;8.32;;;1.60;99.90;;;;;;5092082;28;20430;-56
2023/03/12 08:17:44;;;;;;;15.80;8.85;;;1.60;99.90;;;;;;5072608;28;20076;-55
2023/03/12 08:20:11;;;;;;;16.20;8.63;;;1.50;99.90;;;;;;5071468;28;20040;-55
2023/03/12 08:22:39;;;;;;;15.93;9.07;;;1.40;99.90;;;;;;5071622;28;20486;-56
2023/03/12 08:25:07;;;;;;;13.15;8.15;;;1.50;99.90;;;;;;5072666;28;20418;-55
2023/03/12 08:27:34;;;;;;;17.83;9.32;;;1.30;99.90;;;;;;5075607;28;20052;-56
2023/03/12 08:30:00;;;;;;;14.60;9.13;;;1.50;99.90;;;;;;5089839;28;20101;-55
2023/03/12 08:32:28;;;;;;;14.95;9.20;;;1.60;99.90;;;;;;5095993;28;20039;-55
2023/03/12 08:34:56;;;;;;;13.90;9.85;;;1.50;99.90;;;;;;5095839;28;20040;-55
2023/03/12 08:37:24;;;;;;;14.02;9.05;;;1.40;99.90;;;;;;5095696;28;20044;-55
2023/03/12 08:39:50;;;;;;;15.77;9.45;;;1.70;99.90;;;;;;5095833;28;20055;-55
2023/03/12 08:42:16;;;;;;;15.50;8.88;;;1.50;99.90;;;;;;5095409;28;20100;-55
2023/03/12 08:44:43;;;;;;;13.13;8.48;;;1.60;99.90;;;;;;5095796;28;20036;-56
2023/03/12 08:47:09;;;;;;;15.70;9.13;;;1.70;99.90;;;;;;5095529;28;20473;-56
2023/03/12 08:49:35;;;;;;;23.10;9.68;;;1.60;99.90;;;;;;5095684;28;20035;-56
2023/03/12 08:52:02;;;;;;;17.35;9.10;;;1.60;99.90;;;;;;5095704;28;20114;-56
2023/03/12 08:54:30;;;;;;;19.45;8.82;;;1.60;99.90;;;;;;5095499;28;20135;-56
2023/03/12 08:57:04;;;;;;;11.43;8.20;;;1.60;99.90;;;;;;5095336;28;20040;-56
2023/03/12 08:59:31;;;;;;;13.23;8.75;;;1.60;99.90;;;;;;5095591;28;20462;-56
2023/03/12 09:02:00;;;;;;;12.85;8.57;;;1.70;99.90;;;;;;5093523;28;20075;-56
2023/03/12 09:04:26;;;;;;;13.25;7.45;;;1.70;99.90;;;;;;5095507;28;20063;-56
2023/03/12 09:06:51;;;;;;;11.55;7.75;;;1.70;99.90;;;;;;5095099;28;20394;-56
2023/03/12 09:09:17;;;;;;;10.90;7.57;;;1.80;99.90;;;;;;5093867;28;20109;-56
2023/03/12 09:11:44;;;;;;;14.23;8.02;;;1.90;99.90;;;;;;5095166;28;20536;-56
2023/03/12 09:14:10;;;;;;;14.50;8.13;;;1.80;99.90;;;;;;5095343;28;20083;-56
2023/03/12 09:16:36;;;;;;;15.98;8.25;;;1.90;99.90;;;;;;5095296;28;20079;-56
2023/03/12 09:19:03;;;;;;;11.82;8.30;;;1.70;99.90;;;;;;5095069;28;20075;-56
2023/03/12 09:21:29;;;;;;;13.65;8.32;;;1.90;99.90;;;;;;5094951;28;20044;-56
2023/03/12 09:23:55;;;;;;;11.80;8.35;;;2.00;99.90;;;;;;5094731;28;20484;-56
2023/03/12 09:26:21;;;;;;;15.43;8.80;;;2.10;99.90;;;;;;5093861;28;20051;-56
2023/03/12 09:28:49;;;;;;;11.32;7.72;;;1.80;99.90;;;;;;5094074;28;20040;-56
2023/03/12 09:31:16;;;;;;;16.67;9.43;;;2.10;99.90;;;;;;5094827;28;20478;-56
2023/03/12 09:33:43;;;;;;;15.32;9.15;;;2.00;99.90;;;;;;5094585;28;20043;-56
2023/03/12 09:36:09;;;;;;;13.38;9.25;;;1.90;99.90;;;;;;5100001;28;20044;-56
2023/03/12 09:38:36;;;;;;;11.02;8.25;;;1.70;99.90;;;;;;5113371;28;20478;-55
2023/03/12 09:41:04;;;;;;;16.83;8.88;;;1.80;99.90;;;;;;5108552;28;20080;-55
2023/03/12 09:43:41;;;;;;;11.32;8.35;;;1.70;99.90;;;;;;5094548;28;20040;-55
2023/03/12 09:46:14;;;;;;;13.80;8.93;;;1.90;99.90;;;;;;5093516;28;20040;-56
2023/03/12 09:48:41;;;;;;;11.50;8.20;;;1.70;99.90;;;;;;5094461;28;20048;-56
2023/03/12 09:51:38;;;;;;;13.38;9.25;;;1.80;99.90;;;;;;5094344;28;20478;-56
2023/03/12 09:54:13;;;;;;;9.88;8.65;;;1.90;99.90;;;;;;5092634;28;20461;-56
2023/03/12 09:56:40;;;;;;;13.10;8.05;;;2.10;99.90;;;;;;5078935;28;20052;-56
2023/03/12 09:59:11;;;;;;;12.93;8.52;;;2.10;99.90;;;;;;5081527;28;20068;-55
2023/03/12 10:01:49;;;;;;;17.10;10.50;;;1.70;99.90;;;;;;5081624;28;20083;-55
2023/03/12 10:04:21;;;;;;;13.55;9.07;;;1.90;99.90;;;;;;5073569;28;20083;-55
2023/03/12 10:06:54;;;;;;;16.48;9.32;;;1.80;99.90;;;;;;5084584;28;20053;-56
2023/03/12 10:09:37;;;;;;;9.73;7.82;;;1.80;99.90;;;;;;5093086;28;20052;-55
2023/03/12 10:12:33;;;;;;;13.73;8.00;;;1.80;99.90;;;;;;5094014;28;20043;-55
2023/03/12 10:15:02;;;;;;;10.02;8.30;;;1.90;99.90;;;;;;5094074;28;20503;-56
2023/03/12 10:17:40;;;;;;;9.77;8.20;;;2.10;99.90;;;;;;5093734;28;20043;-55
2023/03/12 10:20:27;;;;;;;15.68;8.50;;;2.10;99.90;;;;;;5093842;28;20036;-56
2023/03/12 10:23:03;;;;;;;12.10;8.38;;;2.40;99.90;;;;;;5094044;28;20047;-55
2023/03/12 10:25:46;;;;;;;12.90;8.85;;;2.30;99.90;;;;;;5093423;28;20127;-56
2023/03/12 10:28:20;;;;;;;10.95;8.63;;;2.20;99.90;;;;;;5093733;28;20044;-55
2023/03/12 10:30:55;;;;;;;11.52;8.10;;;2.10;99.90;;;;;;5093643;28;20044;-56
2023/03/12 10:33:29;;;;;;;11.60;8.30;;;2.40;99.90;;;;;;5093901;28;20386;-56
2023/03/12 10:35:55;;;;;;;11.50;8.63;;;2.20;99.90;;;;;;5082202;28;20033;-56
2023/03/12 10:38:29;;;;;;;11.32;7.72;;;2.30;99.90;;;;;;5073249;28;20119;-56
2023/03/12 10:40:55;;;;;;;14.68;8.85;;;2.40;99.90;;;;;;5073201;28;20040;-55
2023/03/12 10:43:22;;;;;;;12.63;7.82;;;2.30;99.90;;;;;;5071757;28;20434;-56
2023/03/12 10:46:09;;;;;;;14.13;8.48;;;2.60;99.90;;;;;;5073071;28;20072;-56
2023/03/12 10:48:37;;;;;;;11.52;8.82;;;2.50;99.90;;;;;;5072251;28;20044;-56
2023/03/12 10:51:07;;;;;;;13.13;8.80;;;2.20;99.90;;;;;;5073027;28;20059;-55
2023/03/12 10:53:37;;;;;;;12.13;8.55;;;2.30;99.90;;;;;;5073231;28;20049;-56
2023/03/12 10:56:08;;;;;;;14.35;8.40;;;2.60;99.90;;;;;;5078875;28;20123;-55
2023/03/12 10:58:43;;;;;;;15.27;9.00;;;2.40;99.90;;;;;;5093214;28;20032;-56
2023/03/12 11:01:31;;;;;;;14.57;10.07;;;2.60;99.90;;;;;;5093103;28;20432;-55
2023/03/12 11:04:22;;;;;;;14.20;9.65;;;2.60;99.90;;;;;;5091675;28;20432;-55
2023/03/12 11:07:13;;;;;;;12.95;9.52;;;2.60;99.90;;;;;;5093220;28;20076;-56
2023/03/12 11:09:41;;;;;;;17.33;10.00;;;2.80;99.90;;;;;;5080336;28;20057;-55
2023/03/12 11:12:29;;;;;;;11.80;10.02;;;2.70;99.90;;;;;;5083663;28;20043;-56
2023/03/12 11:14:58;;;;;;;11.82;9.13;;;2.80;99.90;;;;;;5092298;28;20414;-55
2023/03/12 11:17:28;;;;;;;12.85;10.15;;;2.70;99.90;;;;;;5092759;28;20176;-55
2023/03/12 11:20:16;;;;;;;14.23;9.77;;;2.60;99.90;;;;;;5092772;28;20047;-56
2023/03/12 11:22:45;;;;;;;14.40;10.00;;;2.70;99.90;;;;;;5093071;28;20737;-56
2023/03/12 11:25:28;;;;;;;14.02;10.20;;;2.70;99.90;;;;;;5091758;28;20044;-56
2023/03/12 11:27:59;;;;;;;15.23;10.63;;;2.70;99.90;;;;;;5092413;28;20126;-56
2023/03/12 11:30:36;;;;;;;19.13;11.10;;;3.10;99.90;;;;;;5092666;28;20044;-56
2023/03/12 11:33:03;;;;;;;18.10;10.93;;;2.80;99.90;;;;;;5092449;28;20094;-56
2023/03/12 11:35:55;;;;;;;16.10;11.73;;;3.10;99.90;;;;;;5092365;28;20089;-56
2023/03/12 11:38:32;;;;;;;16.75;10.85;;;3.00;99.90;;;;;;5077324;28;20095;-56
2023/03/12 11:41:12;;;;;;;16.73;12.32;;;3.50;99.90;;;;;;5092274;28;20101;-56
2023/03/12 11:44:03;;;;;;;14.40;11.30;;;3.10;99.90;;;;;;5092242;28;20028;-56
2023/03/12 11:46:50;;;;;;;15.52;10.57;;;3.50;99.90;;;;;;5092390;28;20040;-56
2023/03/12 11:49:25;;;;;;;17.40;12.20;;;3.70;99.90;;;;;;5091841;28;20044;-56
2023/03/12 11:52:08;;;;;;;18.23;12.20;;;3.30;99.90;;;;;;5092144;28;20431;-56
2023/03/12 11:54:58;;;;;;;16.25;11.85;;;3.30;99.90;;;;;;5092111;28;20106;-56
2023/03/12 11:57:52;;;;;;;15.35;11.80;;;3.90;99.90;;;;;;5092004;28;20040;-56
2023/03/12 12:00:34;;;;;;;19.63;11.73;;;3.70;99.90;;;;;;5091778;28;20111;-56
2023/03/12 12:03:33;;;;;;;18.23;12.48;;;3.60;99.90;;;;;;5092068;28;20040;-56
2023/03/12 12:06:07;;;;;;;15.38;11.77;;;3.70;99.90;;;;;;5091982;28;20036;-57
2023/03/12 12:08:38;;;;;;;16.58;11.80;;;4.10;99.90;;;;;;5090622;28;20059;-56
2023/03/12 12:11:46;;;;;;;16.40;12.10;;;3.90;99.90;;;;;;5083198;28;20044;-56
2023/03/12 12:14:33;;;;;;;19.38;11.70;;;4.40;99.90;;;;;;5029739;28;20167;-57
2023/03/12 12:17:03;;;;;;;18.88;12.45;;;4.00;99.90;;;;;;5029439;28;20044;-56
2023/03/12 12:19:57;;;;;;;19.33;12.50;;;4.60;99.90;;;;;;5029417;28;20045;-56
2023/03/12 12:22:53;;;;;;;19.80;12.43;;;4.40;99.90;;;;;;5025466;28;20407;-56
2023/03/12 12:25:25;;;;;;;17.05;12.15;;;4.80;99.90;;;;;;5027398;28;20116;-56
2023/03/12 12:28:11;;;;;;;20.88;13.18;;;4.60;99.90;;;;;;5028288;28;20085;-56
2023/03/12 12:31:00;;;;;;;18.90;13.43;;;4.70;99.90;;;;;;5029589;28;20519;-56
2023/03/12 12:33:46;;;;;;;23.45;13.60;;;4.90;99.90;;;;;;5029643;28;20049;-56
2023/03/12 12:36:16;;;;;;;19.00;13.23;;;5.40;99.90;;;;;;5012771;28;20157;-56
2023/03/12 12:38:55;;;;;;;20.00;13.48;;;5.10;99.90;;;;;;5028654;28;20056;-55
2023/03/12 12:41:29;;;;;;;23.85;14.43;;;5.20;99.90;;;;;;5029336;28;20417;-55
2023/03/12 12:44:06;;;;;;;23.85;13.98;;;5.70;99.90;;;;;;5032605;28;20046;-56
2023/03/12 12:46:45;;;;;;;24.73;14.40;;;5.80;99.90;;;;;;5071755;28;20118;-56
2023/03/12 12:49:24;;;;;;;23.83;14.57;;;6.00;99.90;;;;;;5087258;28;20139;-56
2023/03/12 12:52:02;;;;;;;23.08;14.68;;;6.10;99.90;;;;;;5091578;28;20494;-56
2023/03/12 12:55:10;;;;;;;24.88;14.88;;;5.90;99.90;;;;;;5091792;28;20032;-56
2023/03/12 12:57:51;;;;;;;25.35;14.48;;;6.00;99.90;;;;;;5071472;28;20060;-56
2023/03/12 13:00:24;;;;;;;27.50;15.23;;;6.20;99.90;;;;;;5071404;28;20049;-56
2023/03/12 13:02:59;;;;;;;24.25;14.55;;;6.50;99.90;;;;;;5071256;28;20076;-56
2023/03/12 13:05:49;;;;;;;27.80;14.20;;;6.30;99.90;;;;;;5071669;28;20063;-56
2023/03/12 13:08:56;;;;;;;24.00;14.02;;;6.60;99.90;;;;;;5075085;28;20121;-56
2023/03/12 13:11:46;;;;;;;26.90;14.85;;;6.80;99.90;;;;;;5076061;28;20040;-57
2023/03/12 13:14:36;;;;;;;29.48;14.85;;;6.50;99.90;;;;;;5075058;28;20076;-56
2023/03/12 13:17:24;;;;;;;30.95;16.85;;;6.60;99.90;;;;;;5074811;28;20047;-56
2023/03/12 13:20:11;;;;;;;29.95;14.98;;;6.70;99.90;;;;;;5074351;28;20051;-57